createdAt,value
2019-01-08T00:00:53.645Z,72.84
2019-01-08T00:01:54.799Z,73.63
2019-01-08T00:02:45.683Z,74.49
2019-01-08T00:03:59.702Z,74.77
2019-01-08T00:04:46.862Z,74.96
2019-01-08T00:06:06.609Z,74.68
2019-01-08T00:06:44.812Z,75.05
2019-01-08T00:07:45.021Z,75.43
2019-01-08T00:08:48.221Z,75.43
2019-01-08T00:09:45.506Z,75.72
2019-01-08T00:11:08.203Z,76.20
2019-01-08T00:11:47.996Z,75.72
2019-01-08T00:12:46.050Z,74.96
2019-01-08T00:13:51.711Z,75.62
2019-01-08T00:14:48.183Z,74.49
2019-01-08T00:15:47.546Z,74.77
2019-01-08T00:16:48.186Z,74.77
2019-01-08T00:17:48.700Z,73.72
2019-01-08T00:18:54.679Z,72.78
2019-01-08T00:19:50.707Z,73.35
2019-01-08T00:20:47.303Z,72.78
2019-01-08T00:21:49.190Z,71.98
2019-01-08T00:22:48.636Z,69.61
2019-01-08T00:23:47.870Z,69.13
2019-01-08T00:24:49.680Z,68.00
2019-01-08T00:25:48.151Z,66.48
2019-01-08T00:26:48.349Z,65.16
2019-01-08T00:27:48.565Z,63.35
2019-01-08T00:28:56.679Z,61.74
2019-01-08T00:29:48.890Z,60.70
2019-01-08T00:30:56.680Z,59.75
2019-01-08T00:31:54.098Z,58.99
2019-01-08T00:32:51.217Z,57.47
2019-01-08T00:33:57.609Z,57.09
2019-01-08T00:34:50.631Z,57.28
2019-01-08T00:35:53.695Z,56.15
2019-01-08T00:36:51.691Z,55.38
2019-01-08T00:37:52.185Z,54.91
2019-01-08T00:39:15.254Z,54.44
2019-01-08T00:40:06.206Z,53.96
2019-01-08T00:40:50.882Z,53.68
2019-01-08T00:41:50.994Z,52.83
2019-01-08T00:42:59.177Z,52.73
2019-01-08T00:43:53.190Z,51.78
2019-01-08T00:46:25.642Z,50.64
2019-01-08T00:47:28.603Z,49.88
2019-01-08T00:48:25.146Z,49.79
2019-01-08T00:49:23.745Z,49.22
2019-01-08T00:50:28.463Z,49.03
2019-01-08T00:51:25.683Z,48.46
2019-01-08T00:52:24.263Z,47.42
2019-01-08T00:53:26.134Z,46.75
2019-01-08T00:54:25.155Z,46.47
2019-01-08T00:55:31.149Z,46.37
2019-01-08T00:56:27.610Z,46.09
2019-01-08T00:57:26.647Z,45.90
2019-01-08T00:58:26.102Z,45.71
2019-01-08T00:59:52.315Z,45.62
2019-01-08T01:00:26.117Z,45.05
2019-01-08T01:01:27.747Z,44.67
2019-01-08T01:02:25.845Z,44.38
2019-01-08T01:03:31.123Z,44.48
2019-01-08T01:04:28.651Z,43.82
2019-01-08T01:05:26.276Z,43.53
2019-01-08T01:06:28.093Z,43.15
2019-01-08T01:07:27.588Z,43.43
2019-01-08T01:08:42.646Z,43.15
2019-01-08T01:09:34.649Z,43.05
2019-01-08T01:10:30.887Z,42.77
2019-01-08T01:11:34.832Z,42.11
2019-01-08T01:12:28.633Z,42.39
2019-01-08T01:13:29.115Z,41.82
2019-01-08T01:14:29.631Z,41.82
2019-01-08T01:15:31.648Z,41.63
2019-01-08T01:16:27.967Z,41.54
2019-01-08T01:17:28.225Z,41.54
2019-01-08T01:18:31.609Z,41.73
2019-01-08T01:19:30.200Z,41.63
2019-01-08T01:20:30.695Z,41.35
2019-01-08T01:21:30.664Z,41.35
2019-01-08T01:22:32.663Z,40.99
2019-01-08T01:23:29.160Z,41.16
2019-01-08T01:24:29.368Z,41.08
2019-01-08T01:25:50.568Z,40.61
2019-01-08T01:26:54.655Z,40.61
2019-01-08T01:27:29.988Z,40.80
2019-01-08T01:28:34.158Z,40.59
2019-01-08T01:29:41.305Z,40.80
2019-01-08T01:30:31.619Z,40.61
2019-01-08T01:31:34.645Z,40.70
2019-01-08T01:32:32.652Z,40.70
2019-01-08T01:33:30.996Z,40.99
2019-01-08T01:34:47.144Z,40.70
2019-01-08T01:35:39.144Z,40.61
2019-01-08T01:36:47.144Z,40.70
2019-01-08T01:37:33.149Z,40.14
2019-01-08T01:38:35.664Z,40.61
2019-01-08T01:39:35.644Z,40.33
2019-01-08T01:40:31.991Z,40.33
2019-01-08T01:41:34.150Z,40.42
2019-01-08T01:42:36.175Z,40.42
2019-01-08T01:43:53.541Z,40.42
2019-01-08T01:44:40.670Z,40.14
2019-01-08T01:45:35.641Z,40.04
2019-01-08T01:46:40.686Z,39.57
2019-01-08T01:47:35.208Z,39.57
2019-01-08T01:48:33.552Z,39.28
2019-01-08T01:49:35.161Z,39.28
2019-01-08T01:50:35.651Z,38.81
2019-01-08T01:51:36.676Z,38.33
2019-01-08T01:52:35.701Z,38.14
2019-01-08T01:53:36.603Z,38.05
2019-01-08T01:54:45.227Z,38.05
2019-01-08T01:55:35.649Z,37.86
2019-01-08T01:56:38.644Z,37.86
2019-01-08T01:57:42.678Z,37.86
2019-01-08T01:58:37.175Z,37.95
2019-01-08T01:59:39.150Z,37.86
2019-01-08T02:00:37.125Z,37.86
2019-01-08T02:01:37.641Z,37.86
2019-01-08T02:02:43.896Z,37.86
2019-01-08T02:03:39.658Z,38.24
2019-01-08T02:04:41.113Z,38.05
2019-01-08T02:05:52.175Z,37.29
2019-01-08T02:06:39.148Z,37.29
2019-01-08T02:07:57.821Z,37.01
2019-01-08T02:08:38.631Z,37.19
2019-01-08T02:09:38.099Z,36.53
2019-01-08T02:10:41.215Z,37.01
2019-01-08T02:11:39.448Z,36.91
2019-01-08T02:12:40.612Z,37.01
2019-01-08T02:13:59.838Z,37.10
2019-01-08T02:14:40.019Z,37.10
2019-01-08T02:15:42.190Z,37.10
2019-01-08T02:16:46.098Z,37.19
2019-01-08T02:17:42.148Z,37.01
2019-01-08T02:18:54.648Z,37.19
2019-01-08T02:19:40.698Z,37.10
2019-01-08T02:20:40.110Z,37.19
2019-01-08T02:21:46.885Z,37.10
2019-01-08T02:22:42.124Z,37.19
2019-01-08T02:23:44.611Z,37.10
2019-01-08T02:24:44.103Z,37.10
2019-01-08T02:25:41.648Z,36.63
2019-01-08T02:27:00.978Z,36.72
2019-01-08T02:27:41.162Z,36.72
2019-01-08T02:28:48.146Z,37.01
2019-01-08T02:29:41.556Z,36.63
2019-01-08T02:30:41.649Z,36.63
2019-01-08T02:31:43.641Z,36.34
2019-01-08T02:32:42.106Z,36.63
2019-01-08T02:33:45.145Z,36.91
2019-01-08T02:34:43.596Z,36.72
2019-01-08T02:36:11.120Z,36.44
2019-01-08T02:36:44.669Z,36.91
2019-01-08T02:37:44.948Z,37.01
2019-01-08T02:38:45.611Z,36.05
2019-01-08T02:41:15.867Z,36.26
2019-01-08T02:42:15.904Z,36.46
2019-01-08T02:43:18.389Z,36.65
2019-01-08T02:44:22.386Z,36.83
2019-01-08T02:45:36.833Z,36.93
2019-01-08T02:46:17.917Z,36.55
2019-01-08T02:47:18.839Z,36.65
2019-01-08T02:48:18.830Z,37.50
2019-01-08T02:49:16.160Z,37.97
2019-01-08T02:50:17.347Z,37.78
2019-01-08T02:51:18.325Z,38.45
2019-01-08T02:52:40.355Z,38.64
2019-01-08T02:56:56.130Z,40.72
2019-01-08T02:59:09.609Z,41.39
2019-01-08T03:00:17.318Z,41.30
2019-01-08T03:00:56.813Z,41.77
2019-01-08T03:01:56.753Z,42.24
2019-01-08T03:04:44.319Z,43.67
2019-01-08T03:05:25.863Z,44.24
2019-01-08T03:06:27.534Z,44.71
2019-01-08T03:07:26.100Z,45.19
2019-01-08T03:08:41.746Z,45.76
2019-01-08T03:09:52.192Z,46.42
2019-01-08T03:10:30.211Z,47.18
2019-01-08T03:11:27.678Z,46.90
2019-01-08T03:12:30.727Z,47.66
2019-01-08T03:13:30.726Z,47.56
2019-01-08T03:14:28.731Z,48.32
2019-01-08T03:15:48.188Z,48.89
2019-01-08T03:16:28.389Z,49.46
2019-01-08T03:17:29.277Z,49.46
2019-01-08T03:18:29.230Z,49.27
2019-01-08T03:19:29.729Z,49.18
2019-01-08T03:20:31.247Z,49.65
2019-01-08T03:21:35.681Z,49.84
2019-01-08T03:22:32.227Z,49.84
2019-01-08T03:23:52.709Z,50.70
2019-01-08T03:24:30.768Z,50.98
2019-01-08T03:25:44.729Z,51.74
2019-01-08T03:26:30.736Z,52.69
2019-01-08T03:27:30.183Z,53.92
2019-01-08T03:28:31.331Z,54.11
2019-01-08T03:29:36.241Z,54.02
2019-01-08T03:30:30.767Z,54.49
2019-01-08T03:31:29.961Z,57.72
2019-01-08T03:32:31.828Z,58.39
2019-01-08T03:33:35.694Z,59.14
2019-01-08T03:34:32.277Z,60.28
2019-01-08T03:35:33.122Z,64.37
2019-01-08T03:36:32.744Z,64.65
2019-01-08T03:37:34.729Z,65.41
2019-01-08T03:38:53.760Z,65.79
2019-01-08T03:39:32.188Z,65.41
2019-01-08T03:40:54.543Z,65.41
2019-01-08T03:41:38.239Z,64.37
2019-01-08T03:42:36.283Z,64.56
2019-01-08T03:43:54.757Z,64.37
2019-01-08T03:44:34.707Z,65.31
2019-01-08T03:45:32.404Z,65.22
2019-01-08T03:46:36.261Z,66.93
2019-01-08T03:47:32.816Z,68.44
2019-01-08T03:48:35.682Z,68.92
2019-01-08T03:49:34.741Z,69.40
2019-01-08T03:50:34.382Z,69.87
2019-01-08T03:51:37.229Z,69.68
2019-01-08T03:52:37.234Z,69.96
2019-01-08T03:53:37.182Z,69.96
2019-01-08T03:54:58.895Z,70.82
2019-01-08T03:55:35.681Z,69.78
2019-01-08T03:56:36.254Z,70.44
2019-01-08T03:57:37.223Z,70.92
2019-01-08T03:59:02.732Z,69.68
2019-01-08T03:59:41.909Z,69.96
2019-01-08T04:00:57.742Z,67.59
2019-01-08T04:01:58.751Z,65.03
2019-01-08T04:03:00.999Z,63.79
2019-01-08T04:03:40.234Z,62.75
2019-01-08T04:04:40.326Z,61.80
2019-01-08T04:05:38.740Z,61.52
2019-01-08T04:06:37.070Z,61.33
2019-01-08T04:07:43.829Z,61.52
2019-01-08T04:08:36.415Z,60.76
2019-01-08T04:11:11.747Z,60.00
2019-01-08T04:12:11.402Z,60.28
2019-01-08T04:13:32.271Z,60.57
2019-01-08T04:14:11.303Z,60.85
2019-01-08T04:15:20.427Z,61.33
2019-01-08T04:16:34.769Z,61.80
2019-01-08T04:17:10.986Z,61.04
2019-01-08T04:18:14.702Z,60.66
2019-01-08T04:19:15.247Z,61.04
2019-01-08T04:20:12.583Z,61.23
2019-01-08T04:21:10.850Z,61.99
2019-01-08T04:22:12.771Z,62.94
2019-01-08T04:23:21.962Z,62.75
2019-01-08T04:24:18.751Z,64.08
2019-01-08T04:25:12.342Z,63.79
2019-01-08T04:26:15.248Z,64.17
2019-01-08T04:27:11.709Z,65.50
2019-01-08T04:28:14.712Z,65.03
2019-01-08T04:29:12.091Z,64.27
2019-01-08T04:30:14.738Z,65.50
2019-01-08T04:31:14.248Z,65.31
2019-01-08T04:32:29.212Z,66.46
2019-01-08T04:33:27.257Z,66.14
2019-01-08T04:34:15.649Z,65.56
2019-01-08T04:35:19.857Z,65.28
2019-01-08T04:36:14.751Z,65.37
2019-01-08T04:37:13.285Z,65.09
2019-01-08T04:38:13.502Z,65.12
2019-01-08T04:39:15.283Z,65.50
2019-01-08T04:40:15.249Z,66.23
2019-01-08T04:41:24.204Z,66.74
2019-01-08T04:42:26.014Z,66.23
2019-01-08T04:43:18.308Z,66.04
2019-01-08T04:44:16.710Z,65.75
2019-01-08T04:45:37.267Z,65.98
2019-01-08T04:46:15.863Z,65.28
2019-01-08T04:47:16.733Z,65.19
2019-01-08T04:48:21.806Z,64.94
2019-01-08T04:49:17.204Z,65.85
2019-01-08T04:50:17.275Z,66.04
2019-01-08T04:51:18.254Z,66.36
2019-01-08T04:52:37.827Z,67.02
2019-01-08T04:53:25.099Z,67.21
2019-01-08T04:54:17.734Z,67.46
2019-01-08T04:55:24.285Z,68.35
2019-01-08T04:56:20.257Z,68.13
2019-01-08T04:57:28.410Z,68.35
2019-01-08T04:58:21.829Z,68.64
2019-01-08T04:59:18.810Z,69.59
2019-01-08T05:05:00.881Z,70.21
2019-01-08T05:05:58.778Z,69.93
2019-01-08T05:07:16.800Z,69.74
2019-01-08T05:08:18.621Z,69.36
2019-01-08T05:08:59.001Z,70.59
2019-01-08T05:10:18.398Z,71.26
2019-01-08T05:10:57.986Z,72.02
2019-01-08T05:12:26.255Z,72.40
2019-01-08T05:12:58.546Z,72.11
2019-01-08T05:14:02.566Z,72.49
2019-01-08T05:15:34.050Z,72.21
2019-01-08T05:15:58.491Z,71.07
2019-01-08T05:17:01.714Z,71.07
2019-01-08T05:17:59.877Z,71.92
2019-01-08T05:19:04.577Z,73.82
2019-01-08T05:20:21.068Z,73.54
2019-01-08T05:21:21.371Z,74.68
2019-01-08T05:22:10.174Z,75.05
2019-01-08T05:22:58.702Z,76.20
2019-01-08T05:24:07.509Z,77.71
2019-01-08T05:25:24.064Z,78.56
2019-01-08T05:26:01.072Z,78.38
2019-01-08T05:27:00.425Z,78.38
2019-01-08T05:28:36.062Z,79.71
2019-01-08T05:29:03.502Z,79.99
2019-01-08T05:30:24.548Z,79.99
2019-01-08T05:31:01.506Z,79.14
2019-01-08T05:32:00.085Z,79.61
2019-01-08T05:33:04.052Z,80.37
2019-01-08T05:34:02.053Z,82.36
2019-01-08T05:35:01.019Z,82.27
2019-01-08T05:36:02.577Z,82.74
2019-01-08T05:37:06.006Z,83.78
2019-01-08T05:38:02.037Z,84.07
2019-01-08T05:39:17.052Z,84.45
2019-01-08T05:40:06.055Z,86.54
2019-01-08T05:42:42.035Z,87.30
2019-01-08T05:43:39.869Z,87.68
2019-01-08T05:44:58.244Z,87.68
2019-01-08T05:45:41.439Z,86.63
2019-01-08T05:48:14.553Z,90.33
2019-01-08T05:49:22.491Z,89.95
2019-01-08T05:50:08.110Z,90.19
2019-01-08T05:51:23.992Z,91.19
2019-01-08T05:55:19.404Z,92.14
2019-01-08T05:57:51.622Z,91.75
2019-01-08T06:05:39.332Z,90.90
2019-01-08T06:06:25.666Z,91.47
2019-01-08T06:07:05.249Z,90.90
2019-01-08T06:11:12.558Z,89.29
2019-01-08T06:12:16.115Z,90.81
2019-01-08T06:13:10.982Z,89.58
2019-01-08T06:14:13.546Z,92.71
2019-01-08T06:15:32.690Z,94.23
2019-01-08T06:17:46.440Z,94.89
2019-01-08T06:18:45.065Z,94.42
2019-01-08T06:19:50.048Z,93.08
2019-01-08T06:21:04.125Z,93.84
2019-01-08T06:21:44.242Z,92.61
2019-01-08T06:22:45.512Z,92.04
2019-01-08T06:23:44.574Z,91.75
2019-01-08T06:25:06.002Z,93.08
2019-01-08T06:27:18.998Z,93.08
2019-01-08T06:28:28.185Z,93.84
2019-01-08T06:29:17.891Z,92.90
2019-01-08T06:30:24.673Z,97.92
2019-01-08T06:31:33.048Z,97.74
2019-01-08T06:32:18.473Z,98.11
2019-01-08T06:33:19.956Z,97.74
2019-01-08T06:34:18.931Z,97.07
2019-01-08T06:37:07.478Z,96.59
2019-01-08T06:37:52.055Z,96.88
2019-01-08T06:38:50.585Z,98.30
2019-01-08T06:39:52.534Z,98.21
2019-01-08T06:40:58.453Z,97.26
2019-01-08T06:43:27.176Z,96.31
2019-01-08T06:44:26.659Z,94.98
2019-01-08T06:45:48.289Z,95.46
2019-01-08T06:48:10.458Z,94.89
2019-01-08T06:48:58.565Z,95.84
2019-01-08T06:50:14.662Z,94.79
2019-01-08T06:50:58.685Z,97.26
2019-01-08T06:52:02.474Z,94.98
2019-01-08T06:53:00.823Z,94.60
2019-01-08T06:54:00.829Z,94.32
2019-01-08T06:54:58.900Z,93.94
2019-01-08T06:57:37.231Z,96.69
2019-01-08T06:58:32.543Z,96.03
2019-01-08T06:59:30.573Z,95.07
2019-01-08T07:00:33.545Z,94.42
2019-01-08T07:01:54.559Z,93.37
2019-01-08T07:02:55.603Z,93.08
2019-01-08T07:03:33.133Z,93.65
2019-01-08T07:04:38.190Z,95.74
2019-01-08T07:05:38.095Z,95.55
2019-01-08T07:06:35.039Z,92.52
2019-01-08T07:07:33.632Z,93.65
2019-01-08T07:08:39.599Z,94.60
2019-01-08T07:09:36.561Z,93.56
2019-01-08T07:10:34.095Z,93.37
2019-01-08T07:11:37.091Z,91.85
2019-01-08T07:12:32.420Z,90.33
2019-01-08T07:13:35.555Z,89.95
2019-01-08T07:14:35.605Z,90.24
2019-01-08T07:15:34.606Z,90.90
2019-01-08T07:16:33.136Z,90.52
2019-01-08T07:17:33.343Z,91.00
2019-01-08T07:18:33.551Z,90.14
2019-01-08T07:21:11.814Z,90.24
2019-01-08T07:22:07.567Z,89.67
2019-01-08T07:23:29.834Z,89.10
2019-01-08T07:24:11.410Z,88.72
2019-01-08T07:25:08.887Z,89.67
2019-01-08T07:26:08.242Z,89.48
2019-01-08T07:27:07.329Z,88.53
2019-01-08T07:28:08.400Z,89.67
2019-01-08T07:29:07.767Z,89.10
2019-01-08T07:30:09.012Z,88.43
2019-01-08T07:31:09.895Z,87.01
2019-01-08T07:32:15.891Z,86.63
2019-01-08T07:33:10.443Z,87.30
2019-01-08T07:34:09.701Z,87.20
2019-01-08T07:35:16.444Z,87.68
2019-01-08T07:36:09.023Z,87.11
2019-01-08T07:37:09.263Z,87.11
2019-01-08T07:38:11.596Z,86.91
2019-01-08T07:39:09.760Z,85.68
2019-01-08T07:40:13.394Z,87.49
2019-01-08T07:41:11.416Z,85.87
2019-01-08T07:42:10.044Z,84.83
2019-01-08T07:43:14.703Z,84.83
2019-01-08T07:44:22.639Z,84.17
2019-01-08T07:45:14.392Z,88.34
2019-01-08T07:46:12.447Z,89.48
2019-01-08T07:47:18.890Z,86.91
2019-01-08T07:48:12.935Z,87.30
2019-01-08T07:49:14.866Z,86.82
2019-01-08T07:50:12.335Z,86.35
2019-01-08T07:51:14.352Z,85.78
2019-01-08T07:52:32.992Z,85.40
2019-01-08T07:53:13.423Z,84.17
2019-01-08T07:54:13.842Z,83.88
2019-01-08T07:55:14.844Z,82.84
2019-01-08T07:56:13.957Z,83.40
2019-01-08T07:57:14.370Z,82.93
2019-01-08T07:58:16.394Z,82.27
2019-01-08T07:59:20.437Z,82.55
2019-01-08T08:00:28.893Z,81.88
2019-01-08T08:01:14.887Z,82.27
2019-01-08T08:02:29.901Z,82.08
2019-01-08T08:03:16.357Z,81.98
2019-01-08T08:04:13.598Z,81.98
2019-01-08T08:05:37.355Z,82.04
2019-01-08T08:06:13.931Z,82.08
2019-01-08T08:07:17.920Z,81.23
2019-01-08T08:08:15.890Z,81.37
2019-01-08T08:09:17.351Z,81.60
2019-01-08T08:10:17.905Z,82.17
2019-01-08T08:11:16.388Z,83.40
2019-01-08T08:12:16.745Z,83.03
2019-01-08T08:13:15.286Z,82.46
2019-01-08T08:14:15.453Z,82.65
2019-01-08T08:15:15.639Z,83.69
2019-01-08T08:16:15.843Z,83.50
2019-01-08T08:17:16.094Z,82.51
2019-01-08T08:18:38.888Z,82.27
2019-01-08T08:19:16.447Z,84.17
2019-01-08T08:20:16.683Z,84.83
2019-01-08T08:21:19.063Z,84.92
2019-01-08T08:22:22.842Z,83.22
2019-01-08T08:23:20.909Z,84.17
2019-01-08T08:24:33.883Z,83.78
2019-01-08T08:25:22.373Z,82.27
2019-01-08T08:26:21.394Z,83.88
2019-01-08T08:27:19.391Z,82.55
2019-01-08T08:28:21.889Z,82.27
2019-01-08T08:29:20.892Z,82.55
2019-01-08T08:30:20.966Z,81.70
2019-01-08T08:31:19.522Z,81.60
2019-01-08T08:32:19.615Z,80.94
2019-01-08T08:33:20.786Z,81.23
2019-01-08T08:34:20.927Z,81.98
2019-01-08T08:35:19.901Z,80.75
2019-01-08T08:36:20.920Z,81.04
2019-01-08T08:37:21.390Z,80.56
2019-01-08T08:38:21.392Z,79.90
2019-01-08T08:39:20.872Z,81.04
2019-01-08T08:40:21.894Z,81.04
2019-01-08T08:41:20.084Z,81.23
2019-01-08T08:42:23.863Z,82.46
2019-01-08T08:43:36.388Z,81.88
2019-01-08T08:44:20.693Z,82.55
2019-01-08T08:45:20.778Z,80.84
2019-01-08T08:46:22.892Z,80.46
2019-01-08T08:47:21.139Z,80.08
2019-01-08T08:48:22.898Z,82.08
2019-01-08T08:49:42.480Z,80.94
2019-01-08T08:50:25.395Z,82.08
2019-01-08T08:51:26.233Z,82.46
2019-01-08T08:52:22.069Z,82.55
2019-01-08T08:53:37.891Z,84.92
2019-01-08T08:54:22.325Z,86.54
2019-01-08T08:55:25.030Z,86.16
2019-01-08T08:56:24.443Z,86.07
2019-01-08T08:57:22.846Z,84.17
2019-01-08T08:58:46.851Z,83.31
2019-01-08T08:59:24.219Z,83.69
2019-01-08T09:00:31.355Z,86.25
2019-01-08T09:01:27.386Z,84.45
2019-01-08T09:02:25.360Z,83.31
2019-01-08T09:03:26.459Z,83.69
2019-01-08T09:04:27.902Z,84.83
2019-01-08T09:05:24.111Z,84.17
2019-01-08T09:06:25.917Z,82.93
2019-01-08T09:07:24.513Z,84.64
2019-01-08T09:09:01.395Z,83.31
2019-01-08T09:09:26.922Z,82.46
2019-01-08T09:10:49.932Z,83.12
2019-01-08T09:11:32.905Z,83.69
2019-01-08T09:12:29.388Z,83.97
2019-01-08T09:14:02.398Z,83.78
2019-01-08T09:14:25.824Z,84.17
2019-01-08T09:15:26.045Z,82.84
2019-01-08T09:16:30.893Z,82.46
2019-01-08T09:17:30.450Z,81.79
2019-01-08T09:18:28.375Z,82.84
2019-01-08T09:19:27.867Z,86.44
2019-01-08T09:20:43.851Z,86.44
2019-01-08T09:21:33.898Z,84.97
2019-01-08T09:22:29.316Z,83.64
2019-01-08T09:23:27.886Z,85.35
2019-01-08T09:24:29.394Z,86.54
2019-01-08T09:25:44.884Z,84.68
2019-01-08T09:26:29.916Z,86.72
2019-01-08T09:27:50.869Z,86.30
2019-01-08T09:28:30.849Z,86.44
2019-01-08T09:29:31.834Z,85.21
2019-01-08T09:30:30.415Z,85.82
2019-01-08T09:31:30.410Z,87.58
2019-01-08T09:32:30.956Z,86.39
2019-01-08T09:33:32.053Z,86.44
2019-01-08T09:34:32.888Z,85.25
2019-01-08T09:35:30.477Z,84.45
2019-01-08T09:36:46.877Z,86.54
2019-01-08T09:37:30.895Z,87.96
2019-01-08T09:38:52.668Z,88.62
2019-01-08T09:39:30.186Z,87.72
2019-01-08T09:41:06.893Z,88.57
2019-01-08T09:41:32.871Z,89.81
2019-01-08T09:42:32.364Z,88.57
2019-01-08T09:43:32.395Z,87.24
2019-01-08T09:44:32.946Z,87.53
2019-01-08T09:45:33.867Z,88.95
2019-01-08T09:46:32.441Z,89.14
2019-01-08T09:47:31.446Z,92.47
2019-01-08T09:48:32.624Z,92.75
2019-01-08T09:49:36.273Z,95.31
2019-01-08T09:50:47.892Z,94.46
2019-01-08T09:51:35.902Z,92.75
2019-01-08T09:52:33.356Z,93.99
2019-01-08T09:53:39.393Z,96.36
2019-01-08T09:55:09.398Z,97.31
2019-01-08T09:57:08.676Z,98.12
2019-01-08T09:59:41.668Z,99.99
2019-01-08T10:00:37.498Z,99.99
2019-01-08T10:01:45.724Z,99.99
2019-01-08T10:03:03.613Z,99.99
2019-01-08T10:03:39.661Z,99.99
2019-01-08T10:04:40.971Z,99.99
2019-01-08T10:05:39.246Z,99.99
2019-01-08T10:06:40.286Z,99.99
2019-01-08T10:07:45.636Z,99.99
2019-01-08T10:08:38.977Z,99.99
2019-01-08T10:09:43.191Z,99.99
2019-01-08T10:10:55.173Z,99.99
2019-01-08T10:11:51.108Z,99.99
2019-01-08T10:12:41.656Z,99.40
2019-01-08T10:13:41.680Z,99.30
2019-01-08T10:14:42.166Z,99.40
2019-01-08T10:15:41.118Z,98.16
2019-01-08T10:16:41.482Z,99.99
2019-01-08T10:17:41.744Z,99.99
2019-01-08T10:18:42.822Z,99.99
2019-01-08T10:20:02.996Z,99.99
2019-01-08T10:20:45.146Z,99.99
2019-01-08T10:21:41.368Z,99.99
2019-01-08T10:22:43.216Z,99.99
2019-01-08T10:23:49.606Z,99.99
2019-01-08T10:24:41.954Z,99.99
2019-01-08T10:25:42.118Z,99.99
2019-01-08T10:26:44.508Z,99.99
2019-01-08T10:27:46.148Z,99.99
2019-01-08T10:43:14.419Z,99.99
2019-01-08T10:43:32.494Z,99.99
2019-01-08T10:44:32.989Z,99.99
2019-01-08T10:45:35.935Z,99.99
2019-01-08T10:46:47.482Z,99.99
2019-01-08T10:47:31.817Z,99.99
2019-01-08T10:51:41.586Z,99.99
2019-01-08T10:52:36.083Z,99.99
2019-01-08T10:53:42.227Z,99.99
2019-01-08T10:54:38.250Z,99.99
2019-01-08T10:55:58.729Z,99.99
2019-01-08T10:56:40.815Z,99.99
2019-01-08T10:57:45.007Z,99.99
2019-01-08T10:58:41.750Z,99.99
2019-01-08T11:00:00.952Z,99.99
2019-01-08T11:00:49.606Z,99.99
2019-01-08T11:01:40.768Z,99.99
2019-01-08T11:02:39.422Z,99.99
2019-01-08T11:03:41.320Z,99.99
2019-01-08T11:04:40.014Z,99.99
2019-01-08T11:05:40.364Z,99.99
2019-01-08T11:06:38.585Z,99.99
2019-01-08T11:07:39.047Z,99.99
2019-01-08T11:08:40.827Z,99.99
2019-01-08T11:09:40.376Z,99.99
2019-01-08T11:10:39.949Z,99.21
2019-01-08T11:12:00.531Z,99.99
2019-01-08T11:12:41.675Z,99.40
2019-01-08T11:13:39.883Z,99.49
2019-01-08T11:14:40.121Z,99.99
2019-01-08T11:15:48.523Z,99.97
2019-01-08T11:16:42.008Z,99.99
2019-01-08T11:17:41.746Z,99.99
2019-01-08T11:18:43.918Z,97.97
2019-01-08T11:19:42.009Z,98.35
2019-01-08T11:20:43.003Z,97.97
2019-01-08T11:21:41.347Z,99.99
2019-01-08T11:22:41.557Z,99.02
2019-01-08T11:23:42.514Z,97.78
2019-01-08T11:24:43.996Z,97.60
2019-01-08T11:25:44.096Z,98.07
2019-01-08T11:26:43.318Z,98.73
2019-01-08T11:27:44.465Z,99.02
2019-01-08T11:28:44.913Z,99.07
2019-01-08T11:29:48.006Z,99.99
2019-01-08T11:38:51.180Z,96.83
2019-01-08T11:39:33.700Z,96.17
2019-01-08T11:40:31.192Z,95.22
2019-01-08T11:41:29.773Z,95.98
2019-01-08T11:42:36.670Z,96.26
2019-01-08T11:43:32.154Z,94.93
2019-01-08T11:44:32.339Z,94.84
2019-01-08T11:45:35.264Z,94.37
2019-01-08T11:46:33.186Z,93.99
2019-01-08T11:48:06.679Z,94.08
2019-01-08T11:48:33.126Z,94.08
2019-01-08T11:49:35.371Z,94.65
2019-01-08T11:50:32.588Z,94.93
2019-01-08T11:51:33.132Z,94.18
2019-01-08T11:52:47.856Z,92.37
2019-01-08T11:53:36.628Z,93.41
2019-01-08T11:54:41.010Z,93.32
2019-01-08T11:55:32.134Z,94.93
2019-01-08T11:56:38.203Z,97.50
2019-01-08T11:57:33.147Z,95.51
2019-01-08T12:00:10.148Z,99.40
2019-01-08T12:01:08.606Z,98.64
2019-01-08T12:02:08.190Z,98.69
2019-01-08T12:03:12.394Z,97.07
2019-01-08T12:04:21.419Z,99.99
2019-01-08T12:05:09.969Z,99.99
2019-01-08T12:06:08.889Z,99.26
2019-01-08T12:07:07.355Z,99.92
2019-01-08T12:08:07.340Z,99.99
2019-01-08T12:09:09.382Z,99.99
2019-01-08T12:11:43.039Z,99.99
2019-01-08T12:12:45.665Z,98.50
2019-01-08T12:13:54.613Z,99.64
2019-01-08T12:14:39.077Z,99.54
2019-01-08T12:15:42.510Z,99.99
2019-01-08T12:16:55.069Z,98.97
2019-01-08T12:17:43.563Z,99.54
2019-01-08T12:18:40.827Z,98.02
2019-01-08T12:19:42.616Z,99.99
2019-01-08T12:20:41.076Z,99.99
2019-01-08T12:22:04.507Z,98.88
2019-01-08T12:24:16.968Z,99.54
2019-01-08T12:25:16.486Z,99.99
2019-01-08T12:26:35.666Z,99.64
2019-01-08T12:27:16.043Z,99.99
2019-01-08T12:28:17.043Z,99.73
2019-01-08T12:29:26.075Z,99.35
2019-01-08T12:30:15.592Z,99.54
2019-01-08T12:31:15.626Z,99.99
2019-01-08T12:32:16.584Z,99.99
2019-01-08T12:33:16.193Z,99.44
2019-01-08T12:34:16.141Z,99.02
2019-01-08T12:35:14.656Z,98.12
2019-01-08T12:36:17.036Z,96.98
2019-01-08T12:37:21.620Z,97.64
2019-01-08T12:38:17.591Z,96.60
2019-01-08T12:39:16.312Z,98.59
2019-01-08T12:40:17.163Z,98.69
2019-01-08T12:41:45.543Z,99.11
2019-01-08T12:42:31.616Z,97.74
2019-01-08T12:43:22.614Z,97.74
2019-01-08T12:44:32.118Z,98.16
2019-01-08T12:45:32.154Z,98.21
2019-01-08T12:46:16.999Z,98.59
2019-01-08T12:47:24.603Z,98.69
2019-01-08T12:48:44.547Z,99.99
2019-01-08T12:49:25.156Z,99.07
2019-01-08T12:50:34.053Z,99.83
2019-01-08T12:51:33.521Z,99.99
2019-01-08T12:52:21.640Z,99.99
2019-01-08T12:53:47.551Z,99.99
2019-01-08T12:54:41.088Z,99.99
2019-01-08T12:55:40.661Z,99.99
2019-01-08T12:56:39.164Z,99.54
2019-01-08T12:57:23.052Z,99.99
2019-01-08T12:58:20.046Z,99.99
2019-01-08T12:59:20.558Z,99.99
2019-01-08T13:00:19.453Z,99.99
2019-01-08T13:01:34.592Z,99.99
2019-01-08T13:02:20.046Z,99.99
2019-01-08T13:03:44.118Z,99.99
2019-01-08T13:04:27.103Z,99.99
2019-01-08T13:08:41.844Z,99.99
2019-01-08T13:09:42.808Z,99.99
2019-01-08T13:10:41.838Z,99.99
2019-01-08T13:11:48.388Z,99.99
2019-01-08T13:13:07.435Z,99.99
2019-01-08T13:14:09.370Z,99.99
2019-01-08T13:14:41.788Z,99.99
2019-01-08T13:15:53.094Z,99.99
2019-01-08T13:16:41.331Z,99.99
2019-01-08T13:17:44.351Z,99.99
2019-01-08T13:18:43.350Z,99.99
2019-01-08T13:20:02.684Z,99.99
2019-01-08T13:23:55.713Z,99.99
2019-01-08T13:24:53.103Z,99.99
2019-01-08T13:25:53.148Z,99.99
2019-01-08T13:26:51.196Z,99.99
2019-01-08T13:27:52.175Z,99.99
2019-01-08T13:28:52.687Z,99.99
2019-01-08T13:30:26.768Z,99.26
2019-01-08T13:30:55.179Z,98.97
2019-01-08T13:31:51.141Z,99.99
2019-01-08T13:32:52.156Z,99.99
2019-01-08T13:33:57.161Z,99.83
2019-01-08T13:34:53.192Z,99.99
2019-01-08T13:36:12.919Z,97.92
2019-01-08T13:37:15.817Z,99.26
2019-01-08T13:38:14.347Z,99.99
2019-01-08T13:39:18.602Z,99.99
2019-01-08T13:40:14.230Z,99.99
2019-01-08T13:41:24.938Z,99.99
2019-01-08T13:44:06.173Z,99.99
2019-01-08T13:44:25.369Z,99.99
2019-01-08T13:45:50.074Z,99.99
2019-01-08T13:47:02.611Z,99.99
2019-01-08T13:47:31.692Z,99.99
2019-01-08T13:48:27.571Z,99.99
2019-01-08T13:49:27.150Z,99.99
2019-01-08T13:50:27.349Z,99.99
2019-01-08T13:51:25.549Z,99.99
2019-01-08T13:52:29.975Z,99.99
2019-01-08T13:55:26.057Z,99.99
2019-01-08T13:56:01.999Z,99.99
2019-01-08T13:57:07.486Z,99.99
2019-01-08T14:00:03.865Z,99.99
2019-01-08T14:00:40.886Z,99.99
2019-01-08T14:01:32.918Z,99.99
2019-01-08T14:02:35.406Z,99.99
2019-01-08T14:04:07.363Z,99.99
2019-01-08T14:04:40.276Z,99.99
2019-01-08T14:05:38.540Z,99.99
2019-01-08T14:06:33.623Z,99.99
2019-01-08T14:07:55.866Z,99.99
2019-01-08T14:08:35.694Z,99.99
2019-01-08T14:10:09.472Z,99.99
2019-01-08T14:10:36.918Z,99.99
2019-01-08T14:11:48.968Z,99.99
2019-01-08T14:12:35.945Z,99.99
2019-01-08T14:13:35.431Z,99.99
2019-01-08T14:14:35.449Z,99.99
2019-01-08T14:16:01.407Z,99.99
2019-01-08T14:16:59.863Z,99.99
2019-01-08T14:17:46.150Z,99.99
2019-01-08T14:18:37.920Z,99.99
2019-01-08T14:20:03.482Z,99.99
2019-01-08T14:20:41.441Z,99.99
2019-01-08T14:21:56.753Z,99.99